Terminal Aerodrome Forecast
Issued by NWS

Home | Current Version | Previous Version | Text Only | Print | Product List | Glossary On
Versions: 1 2 3 4 5 6 7 8 9 10 11 12 13 14
777
FTUS44 KJAN 141120
TAFHKS
TAF
KHKS 141120Z 1412/1512 14011KT P6SM OVC060
     FM150400 16011KT P6SM OVC025
     FM150700 15011KT P6SM OVC015
     FM151000 15011KT P6SM OVC007=

USA.gov is the U.S. government's official web portal to all federal, state and local government web resources and services.